Time;durP1;ratioP1;P1;durP2;ratioP2;P2;SDS_P1;SDS_P2;PMS_P1;PMS_P2;Temp;Humidity;BMP_temperature;BMP_pressure;BME280_temperature;BME280_humidity;BME280_pressure;Samples;Min_cycle;Max_cycle;Signal;HPM_P1;HPM_P2
2022/03/22 00:00:36;;;;;;;38.15;27.13;;;5.60;99.90;;;;;;5034331;28;20518;-73
2022/03/22 00:03:05;;;;;;;40.00;26.65;;;5.50;99.90;;;;;;5048737;28;20060;-73
2022/03/22 00:05:31;;;;;;;40.30;27.73;;;5.50;99.90;;;;;;5052402;28;20037;-73
2022/03/22 00:08:00;;;;;;;39.05;27.25;;;5.50;99.90;;;;;;5034760;28;20053;-73
2022/03/22 00:10:27;;;;;;;39.05;27.10;;;5.40;99.90;;;;;;5032672;28;20045;-73
2022/03/22 00:12:52;;;;;;;37.72;26.98;;;5.40;99.90;;;;;;5034810;28;20052;-73
2022/03/22 00:15:18;;;;;;;37.67;26.23;;;5.50;99.90;;;;;;5034779;28;20042;-73
2022/03/22 00:17:43;;;;;;;42.90;26.48;;;5.40;99.90;;;;;;5032330;28;20069;-73
2022/03/22 00:20:10;;;;;;;38.72;26.15;;;5.40;99.90;;;;;;5034399;28;20045;-73
2022/03/22 00:22:39;;;;;;;35.90;24.92;;;5.40;99.90;;;;;;5034522;28;20116;-72
2022/03/22 00:25:06;;;;;;;37.13;25.27;;;5.40;99.90;;;;;;5032710;28;20068;-73
2022/03/22 00:27:51;;;;;;;38.17;26.58;;;5.40;99.90;;;;;;5032901;28;20049;-73
2022/03/22 00:30:33;;;;;;;41.38;26.60;;;5.30;99.90;;;;;;5033498;28;20061;-73
2022/03/22 00:33:01;;;;;;;38.60;27.33;;;5.30;99.90;;;;;;5032976;28;20061;-73
2022/03/22 00:35:30;;;;;;;40.50;27.27;;;5.30;99.90;;;;;;5034196;28;20061;-73
2022/03/22 00:37:57;;;;;;;39.95;26.83;;;5.30;99.90;;;;;;5053532;28;20033;-73
2022/03/22 00:40:25;;;;;;;37.20;25.85;;;5.30;99.90;;;;;;5054240;28;20045;-73
2022/03/22 00:42:53;;;;;;;41.38;27.60;;;5.30;99.90;;;;;;5054108;28;20068;-73
2022/03/22 00:45:21;;;;;;;37.92;25.95;;;5.30;99.90;;;;;;5053637;28;20044;-72
2022/03/22 00:47:49;;;;;;;37.05;25.63;;;5.20;99.90;;;;;;5052569;28;20067;-72
2022/03/22 00:50:17;;;;;;;41.50;27.73;;;5.30;99.90;;;;;;5053784;28;20122;-72
2022/03/22 00:52:43;;;;;;;40.65;26.30;;;5.20;99.90;;;;;;5053138;28;20399;-72
2022/03/22 00:55:12;;;;;;;44.90;27.40;;;5.20;99.90;;;;;;5053951;28;20136;-72
2022/03/22 00:57:38;;;;;;;39.75;26.83;;;5.20;99.90;;;;;;5052378;28;20045;-72
2022/03/22 01:00:06;;;;;;;54.22;28.55;;;5.20;99.90;;;;;;5053407;28;20099;-72
2022/03/22 01:02:40;;;;;;;43.35;28.45;;;5.20;99.90;;;;;;5052477;28;20475;-72
2022/03/22 01:05:11;;;;;;;43.55;29.65;;;5.20;99.90;;;;;;5052305;28;20045;-72
2022/03/22 01:07:37;;;;;;;42.58;28.40;;;5.20;99.90;;;;;;5053018;28;20060;-72
2022/03/22 01:10:08;;;;;;;40.80;27.38;;;5.10;99.90;;;;;;5049947;28;20053;-72
2022/03/22 01:12:38;;;;;;;40.47;27.83;;;5.10;99.90;;;;;;5043571;28;20080;-73
2022/03/22 01:15:09;;;;;;;36.15;26.48;;;5.10;99.90;;;;;;5041268;28;20442;-73
2022/03/22 01:17:35;;;;;;;43.65;27.85;;;5.10;99.90;;;;;;5052385;28;20448;-73
2022/03/22 01:20:01;;;;;;;45.58;28.88;;;5.10;99.90;;;;;;5052681;28;20101;-73
2022/03/22 01:22:27;;;;;;;44.00;28.98;;;5.00;99.90;;;;;;5038235;28;20038;-73
2022/03/22 01:24:53;;;;;;;43.47;28.90;;;5.00;99.90;;;;;;5032194;28;20132;-73
2022/03/22 01:27:22;;;;;;;42.03;27.73;;;5.00;99.90;;;;;;5031700;28;20444;-73
2022/03/22 01:29:48;;;;;;;43.50;28.85;;;5.00;99.90;;;;;;5032326;28;20089;-73
2022/03/22 01:32:15;;;;;;;40.28;27.80;;;5.00;99.90;;;;;;5032227;28;20053;-74
2022/03/22 01:34:42;;;;;;;45.60;29.00;;;5.00;99.90;;;;;;5030981;28;20609;-73
2022/03/22 01:37:09;;;;;;;42.80;28.60;;;5.00;99.90;;;;;;5033202;28;20122;-73
2022/03/22 01:39:34;;;;;;;41.50;26.85;;;5.00;99.90;;;;;;5031783;28;20084;-73
2022/03/22 01:42:00;;;;;;;42.63;27.60;;;5.00;99.90;;;;;;5032346;28;20076;-73
2022/03/22 01:44:26;;;;;;;40.05;28.20;;;5.00;99.90;;;;;;5033184;28;20747;-73
2022/03/22 01:46:56;;;;;;;37.00;27.05;;;5.00;99.90;;;;;;5032936;28;20546;-73
2022/03/22 01:49:22;;;;;;;48.05;29.40;;;5.00;99.90;;;;;;5032738;28;20451;-73
2022/03/22 01:51:49;;;;;;;43.40;29.52;;;4.90;99.90;;;;;;5032871;28;20041;-73
2022/03/22 01:54:16;;;;;;;44.53;28.60;;;4.90;99.90;;;;;;5032774;28;20045;-73
2022/03/22 01:56:41;;;;;;;40.85;28.42;;;4.90;99.90;;;;;;5030608;28;20129;-73
2022/03/22 01:59:07;;;;;;;37.88;27.55;;;4.90;99.90;;;;;;5031388;28;20137;-72
2022/03/22 02:07:13;;;;;;;47.60;29.13;;;4.90;99.90;;;;;;5031606;28;20054;-73
2022/03/22 02:09:38;;;;;;;40.63;27.15;;;4.90;99.90;;;;;;5030847;28;20057;-73
2022/03/22 02:12:04;;;;;;;40.35;27.75;;;4.90;99.90;;;;;;5031438;28;20099;-73
2022/03/22 02:14:30;;;;;;;42.25;28.23;;;4.90;99.90;;;;;;5031045;28;20080;-73
2022/03/22 02:16:55;;;;;;;45.17;28.52;;;4.90;99.90;;;;;;5030506;28;20742;-73
2022/03/22 02:19:21;;;;;;;42.65;27.83;;;4.90;99.90;;;;;;5032473;28;20107;-72
2022/03/22 02:21:52;;;;;;;40.92;26.42;;;4.90;99.90;;;;;;5032365;28;20054;-73
2022/03/22 02:24:18;;;;;;;42.63;28.63;;;4.90;99.90;;;;;;5030641;28;20045;-73
2022/03/22 02:26:43;;;;;;;46.63;30.75;;;4.90;99.90;;;;;;5031091;28;20095;-73
2022/03/22 02:29:09;;;;;;;42.80;26.90;;;4.90;99.90;;;;;;5031099;28;20046;-73
2022/03/22 02:31:35;;;;;;;44.05;26.92;;;4.90;99.90;;;;;;5031634;28;20099;-73
2022/03/22 02:34:00;;;;;;;41.95;28.23;;;4.90;99.90;;;;;;5030901;28;20077;-72
2022/03/22 02:36:26;;;;;;;39.95;28.10;;;4.90;99.90;;;;;;5032143;28;20067;-73
2022/03/22 02:38:52;;;;;;;37.05;25.70;;;4.90;99.90;;;;;;5031651;28;20057;-73
2022/03/22 02:41:20;;;;;;;42.45;28.27;;;4.90;99.90;;;;;;5033033;28;20050;-73
2022/03/22 02:43:46;;;;;;;41.72;26.38;;;4.90;99.90;;;;;;5041717;28;20060;-72
2022/03/22 02:46:12;;;;;;;40.47;27.48;;;4.90;99.90;;;;;;5050574;28;20065;-72
2022/03/22 02:48:38;;;;;;;42.70;27.95;;;4.90;99.90;;;;;;5038742;28;20037;-72
2022/03/22 02:51:04;;;;;;;38.50;27.35;;;4.90;99.90;;;;;;5047534;28;20539;-72
2022/03/22 02:53:29;;;;;;;40.53;26.65;;;4.90;99.90;;;;;;5040373;28;20041;-72
2022/03/22 02:55:55;;;;;;;43.22;27.05;;;4.90;99.90;;;;;;5049672;28;20441;-72
2022/03/22 02:58:20;;;;;;;45.25;28.17;;;4.90;99.90;;;;;;5035453;28;20557;-73
2022/03/22 03:00:46;;;;;;;45.20;28.20;;;4.90;99.90;;;;;;5046848;28;20059;-73
2022/03/22 03:03:12;;;;;;;42.47;29.60;;;4.90;99.90;;;;;;5054894;28;20117;-73
2022/03/22 03:05:38;;;;;;;42.30;28.08;;;4.90;99.90;;;;;;5044868;28;20049;-73
2022/03/22 03:08:04;;;;;;;45.45;29.02;;;4.90;99.90;;;;;;5036869;28;20187;-72
2022/03/22 03:10:30;;;;;;;52.60;29.70;;;4.90;99.90;;;;;;5047736;28;20550;-73
2022/03/22 03:13:05;;;;;;;40.80;28.15;;;4.90;99.90;;;;;;5042760;28;20563;-73
2022/03/22 03:15:31;;;;;;;44.28;29.67;;;4.90;99.90;;;;;;5054339;28;20037;-73
2022/03/22 03:17:58;;;;;;;44.65;27.85;;;4.90;99.90;;;;;;5048271;28;20053;-72
2022/03/22 03:20:24;;;;;;;41.63;28.35;;;4.90;99.90;;;;;;5035061;28;20041;-72
2022/03/22 03:22:49;;;;;;;40.75;28.48;;;4.90;99.90;;;;;;5034563;28;20042;-72
2022/03/22 03:25:15;;;;;;;44.33;30.40;;;4.90;99.90;;;;;;5034250;28;20484;-73
2022/03/22 03:27:41;;;;;;;40.45;28.90;;;4.90;99.90;;;;;;5033799;28;20045;-73
2022/03/22 03:30:10;;;;;;;42.60;28.33;;;4.80;99.90;;;;;;5035260;28;20065;-73
2022/03/22 03:32:36;;;;;;;47.10;29.98;;;4.80;99.90;;;;;;5035249;28;20069;-72
2022/03/22 03:35:03;;;;;;;44.88;29.85;;;4.80;99.90;;;;;;5033647;28;20037;-72
2022/03/22 03:37:31;;;;;;;43.25;28.30;;;4.70;99.90;;;;;;5035502;28;20049;-72
2022/03/22 03:39:57;;;;;;;37.60;27.05;;;4.70;99.90;;;;;;5033941;28;20081;-72
2022/03/22 03:42:22;;;;;;;42.58;29.08;;;4.70;99.90;;;;;;5033145;28;20075;-72
2022/03/22 03:47:34;;;;;;;44.13;29.05;;;4.70;99.90;;;;;;5033156;28;20053;-72
2022/03/22 03:50:01;;;;;;;42.67;27.98;;;4.70;99.90;;;;;;5033797;28;20053;-72
2022/03/22 03:52:29;;;;;;;43.88;28.98;;;4.70;99.90;;;;;;5034878;28;20048;-72
2022/03/22 03:54:56;;;;;;;44.45;30.80;;;4.70;99.90;;;;;;5033859;28;20046;-73
2022/03/22 03:57:23;;;;;;;46.88;31.25;;;4.70;99.90;;;;;;5033543;28;20076;-73
2022/03/22 03:59:49;;;;;;;45.50;30.00;;;4.70;99.90;;;;;;5033598;28;20551;-73
2022/03/22 04:02:16;;;;;;;45.63;29.98;;;4.70;99.90;;;;;;5032838;28;20468;-73
2022/03/22 04:04:43;;;;;;;40.08;29.08;;;4.70;99.90;;;;;;5033781;28;20498;-73
2022/03/22 04:07:11;;;;;;;44.17;28.95;;;4.60;99.90;;;;;;5034794;28;20124;-73
2022/03/22 04:09:38;;;;;;;48.03;29.73;;;4.70;99.90;;;;;;5034004;28;20060;-73
2022/03/22 04:12:04;;;;;;;47.38;30.83;;;4.70;99.90;;;;;;5034543;28;20042;-73
2022/03/22 04:14:29;;;;;;;43.92;28.70;;;4.70;99.90;;;;;;5034665;28;20050;-73
2022/03/22 04:16:58;;;;;;;53.97;30.05;;;4.70;99.90;;;;;;5049917;28;20049;-73
2022/03/22 04:19:26;;;;;;;40.60;27.92;;;4.70;99.90;;;;;;5033501;28;20056;-73
2022/03/22 04:21:52;;;;;;;41.60;27.00;;;4.80;99.90;;;;;;5050440;28;20388;-72
2022/03/22 04:24:18;;;;;;;48.92;31.85;;;4.70;99.90;;;;;;5052324;28;20049;-73
2022/03/22 04:26:45;;;;;;;40.40;27.52;;;4.70;99.90;;;;;;5051216;28;20052;-72
2022/03/22 04:34:43;;;;;;;47.80;29.17;;;4.80;99.90;;;;;;5032985;28;20062;-72
2022/03/22 04:37:12;;;;;;;44.90;29.55;;;4.80;99.90;;;;;;5032149;28;20053;-72
2022/03/22 04:39:39;;;;;;;44.10;29.08;;;4.80;99.90;;;;;;5034387;28;20041;-73
2022/03/22 04:42:05;;;;;;;44.47;29.20;;;4.80;99.90;;;;;;5033117;28;20446;-72
2022/03/22 04:44:31;;;;;;;43.42;28.45;;;4.80;99.90;;;;;;5032059;28;20045;-72
2022/03/22 04:46:57;;;;;;;42.90;28.30;;;4.70;99.90;;;;;;5038208;28;20422;-73
2022/03/22 04:49:23;;;;;;;41.35;28.23;;;4.70;99.90;;;;;;5053954;28;20052;-72
2022/03/22 04:57:17;;;;;;;38.90;28.02;;;4.70;99.90;;;;;;5045984;28;20132;-72
2022/03/22 04:59:43;;;;;;;44.67;29.52;;;4.70;99.90;;;;;;5031645;28;20133;-72
2022/03/22 05:02:10;;;;;;;48.28;30.38;;;4.70;99.90;;;;;;5032245;28;20072;-73
2022/03/22 05:04:36;;;;;;;47.60;31.40;;;4.70;99.90;;;;;;5032387;28;20042;-72
2022/03/22 05:07:02;;;;;;;42.20;28.92;;;4.70;99.90;;;;;;5033589;28;20132;-72
2022/03/22 05:09:30;;;;;;;42.85;28.48;;;4.70;99.90;;;;;;5033563;28;20088;-73
2022/03/22 05:11:58;;;;;;;47.15;30.35;;;4.80;99.90;;;;;;5032874;28;20049;-72
2022/03/22 05:14:24;;;;;;;44.28;28.42;;;4.80;99.90;;;;;;5032100;28;20103;-73
2022/03/22 05:16:49;;;;;;;41.95;28.95;;;4.70;99.90;;;;;;5036236;28;20037;-72
2022/03/22 05:19:15;;;;;;;42.53;28.92;;;4.80;99.90;;;;;;5037905;28;20048;-73
2022/03/22 05:21:41;;;;;;;45.40;31.05;;;4.80;99.90;;;;;;5048934;28;20056;-73
2022/03/22 05:24:07;;;;;;;45.33;28.13;;;4.70;99.90;;;;;;5033421;28;20049;-73
2022/03/22 05:26:34;;;;;;;45.40;29.50;;;4.70;99.90;;;;;;5032291;28;20499;-73
2022/03/22 05:29:01;;;;;;;45.40;29.20;;;4.70;99.90;;;;;;5045217;28;20128;-73
2022/03/22 05:31:26;;;;;;;41.53;27.27;;;4.70;99.90;;;;;;5036325;28;20399;-73
2022/03/22 05:33:54;;;;;;;40.88;28.23;;;4.80;99.90;;;;;;5046745;28;20037;-73
2022/03/22 05:36:20;;;;;;;46.72;28.92;;;4.80;99.90;;;;;;5034288;28;20050;-75
2022/03/22 05:38:46;;;;;;;48.45;30.05;;;4.80;99.90;;;;;;5039727;28;20056;-74
2022/03/22 05:41:11;;;;;;;41.15;28.42;;;4.70;99.90;;;;;;5032089;28;20520;-72
2022/03/22 05:43:37;;;;;;;52.25;31.77;;;4.80;99.90;;;;;;5033137;28;20048;-72
2022/03/22 05:46:03;;;;;;;48.13;31.50;;;4.80;99.90;;;;;;5033679;28;20052;-72
2022/03/22 05:48:30;;;;;;;46.28;31.60;;;4.80;99.90;;;;;;5038355;28;20518;-72
2022/03/22 05:50:56;;;;;;;42.63;28.75;;;4.80;99.90;;;;;;5037857;28;20049;-72
2022/03/22 05:53:22;;;;;;;47.63;31.80;;;4.80;99.90;;;;;;5046042;28;20053;-72
2022/03/22 05:55:48;;;;;;;46.42;30.17;;;4.80;99.90;;;;;;5050706;28;20041;-72
2022/03/22 05:58:13;;;;;;;48.55;29.63;;;4.90;99.90;;;;;;5048132;28;20033;-72
2022/03/22 06:00:39;;;;;;;42.47;28.80;;;4.80;99.90;;;;;;5047423;28;20483;-72
2022/03/22 06:03:05;;;;;;;43.53;28.67;;;4.90;99.90;;;;;;5040462;28;20419;-72
2022/03/22 06:05:31;;;;;;;46.00;29.85;;;4.90;99.90;;;;;;5041048;28;20049;-72
2022/03/22 06:07:58;;;;;;;45.05;28.60;;;4.90;99.90;;;;;;5044176;28;20047;-72
2022/03/22 06:10:25;;;;;;;44.17;30.38;;;5.00;99.90;;;;;;5033719;28;20120;-72
2022/03/22 06:12:53;;;;;;;42.95;29.38;;;5.00;99.90;;;;;;5032167;28;20128;-72
2022/03/22 06:15:21;;;;;;;43.60;29.67;;;5.00;99.90;;;;;;5031946;28;20056;-72
2022/03/22 06:17:56;;;;;;;40.63;28.65;;;5.00;99.90;;;;;;5032255;28;20052;-72
2022/03/22 06:20:23;;;;;;;47.92;30.88;;;5.00;99.90;;;;;;5032521;28;20054;-72
2022/03/22 06:22:49;;;;;;;51.72;29.70;;;5.10;99.90;;;;;;5031765;28;20155;-72
2022/03/22 06:25:16;;;;;;;41.22;28.58;;;5.10;99.90;;;;;;5032393;28;20041;-72
2022/03/22 06:27:44;;;;;;;45.90;30.23;;;5.10;99.90;;;;;;5032292;28;20114;-72
2022/03/22 06:30:10;;;;;;;42.95;28.90;;;5.20;99.90;;;;;;5030147;28;20190;-72
2022/03/22 06:32:45;;;;;;;38.75;27.30;;;5.20;99.90;;;;;;5035708;28;20069;-70
2022/03/22 06:35:12;;;;;;;43.35;30.58;;;5.20;99.90;;;;;;5037916;28;20057;-72
2022/03/22 06:37:39;;;;;;;43.03;28.08;;;5.30;99.90;;;;;;5031593;28;20053;-71
2022/03/22 06:40:09;;;;;;;41.75;29.02;;;5.30;99.90;;;;;;5032108;28;20081;-72
2022/03/22 06:42:36;;;;;;;44.50;30.15;;;5.30;99.90;;;;;;5030985;28;20042;-71
2022/03/22 06:45:03;;;;;;;52.55;30.92;;;5.40;99.90;;;;;;5030607;28;20063;-71
2022/03/22 06:47:30;;;;;;;44.85;29.75;;;5.40;99.90;;;;;;5044254;28;20102;-72
2022/03/22 06:49:56;;;;;;;41.50;27.73;;;5.40;99.90;;;;;;5040902;28;20045;-72
2022/03/22 06:52:21;;;;;;;43.92;29.08;;;5.50;99.90;;;;;;5044375;28;20148;-71
2022/03/22 06:54:48;;;;;;;43.58;29.35;;;5.50;99.90;;;;;;5034444;28;20132;-71
2022/03/22 06:57:14;;;;;;;51.35;30.63;;;5.60;99.90;;;;;;5030136;28;20047;-71
2022/03/22 06:59:39;;;;;;;49.42;30.88;;;5.60;99.90;;;;;;5032012;28;20049;-71
2022/03/22 07:02:05;;;;;;;48.17;30.58;;;5.60;99.90;;;;;;5047509;28;20428;-71
2022/03/22 07:04:31;;;;;;;42.05;29.60;;;5.70;99.90;;;;;;5051261;28;20131;-72
2022/03/22 07:06:57;;;;;;;41.20;29.42;;;5.70;99.90;;;;;;5051966;28;20045;-73
2022/03/22 07:09:23;;;;;;;44.65;29.52;;;5.80;99.90;;;;;;5036153;28;20051;-71
2022/03/22 07:11:52;;;;;;;44.60;30.15;;;5.80;99.90;;;;;;5029994;28;20523;-72
2022/03/22 07:14:19;;;;;;;41.35;27.40;;;5.90;99.90;;;;;;5031861;28;20072;-72
2022/03/22 07:16:48;;;;;;;42.58;29.02;;;5.90;99.90;;;;;;5036419;28;20040;-72
2022/03/22 07:19:15;;;;;;;47.03;28.08;;;5.90;99.90;;;;;;5031486;28;20053;-72
2022/03/22 07:21:42;;;;;;;46.83;30.17;;;6.00;99.90;;;;;;5032853;28;20412;-72
2022/03/22 07:24:09;;;;;;;59.05;32.20;;;6.10;99.90;;;;;;5033939;28;20116;-71
2022/03/22 07:26:34;;;;;;;47.38;29.50;;;6.20;99.90;;;;;;5040859;28;20045;-72
2022/03/22 07:29:00;;;;;;;42.33;28.95;;;6.30;99.90;;;;;;5048087;28;20084;-71
2022/03/22 07:31:26;;;;;;;47.22;28.02;;;6.40;99.90;;;;;;5036794;28;20053;-73
2022/03/22 07:33:51;;;;;;;42.10;28.63;;;6.50;99.90;;;;;;5034886;28;20057;-72
2022/03/22 07:36:17;;;;;;;45.28;29.70;;;6.60;99.90;;;;;;5035711;28;20075;-72
2022/03/22 07:38:42;;;;;;;48.38;29.08;;;6.70;99.90;;;;;;5035797;28;20052;-71
2022/03/22 07:41:10;;;;;;;44.30;29.52;;;6.90;99.90;;;;;;5039316;28;20072;-71
2022/03/22 07:43:37;;;;;;;48.63;30.55;;;7.00;99.90;;;;;;5034746;28;20522;-72
2022/03/22 07:46:03;;;;;;;46.20;30.00;;;7.10;99.90;;;;;;5038822;28;20124;-72
2022/03/22 07:48:29;;;;;;;43.38;29.00;;;7.30;99.90;;;;;;5034560;28;20045;-72
2022/03/22 07:53:38;;;;;;;45.03;28.70;;;7.40;99.90;;;;;;5036854;28;20050;-72
2022/03/22 07:56:04;;;;;;;41.33;27.33;;;7.50;99.90;;;;;;5039419;28;20048;-72
2022/03/22 07:58:30;;;;;;;43.47;30.40;;;7.50;99.90;;;;;;5039374;28;20574;-72
2022/03/22 08:00:56;;;;;;;40.78;28.73;;;7.60;99.90;;;;;;5046366;28;20055;-73
2022/03/22 08:03:21;;;;;;;44.42;28.98;;;7.60;99.90;;;;;;5043871;28;20079;-74
2022/03/22 08:05:47;;;;;;;41.63;28.38;;;7.60;99.90;;;;;;5039098;28;20065;-72
2022/03/22 08:08:17;;;;;;;40.65;27.95;;;7.70;99.90;;;;;;5037660;28;20701;-73
2022/03/22 08:10:44;;;;;;;46.00;31.60;;;7.80;99.90;;;;;;5034486;28;20058;-73
2022/03/22 08:13:11;;;;;;;38.92;28.67;;;7.90;99.90;;;;;;5033000;28;20492;-74
2022/03/22 08:15:37;;;;;;;46.85;30.65;;;8.10;99.90;;;;;;5033780;28;20049;-73
2022/03/22 08:18:03;;;;;;;43.63;30.00;;;8.20;99.90;;;;;;5033131;28;20442;-73
2022/03/22 08:20:30;;;;;;;42.25;29.15;;;8.30;99.90;;;;;;5034484;28;20069;-73
2022/03/22 08:22:59;;;;;;;43.10;29.67;;;8.50;99.90;;;;;;5033654;28;20045;-73
2022/03/22 08:25:32;;;;;;;43.70;29.33;;;8.70;99.90;;;;;;5043884;28;20045;-73
2022/03/22 08:28:01;;;;;;;40.90;28.45;;;8.90;99.90;;;;;;5053974;28;20546;-73
2022/03/22 08:30:28;;;;;;;42.17;29.27;;;9.10;99.90;;;;;;5052078;28;20053;-74
2022/03/22 08:33:00;;;;;;;38.22;28.08;;;9.30;99.90;;;;;;5052727;28;20056;-74
2022/03/22 08:35:27;;;;;;;41.92;28.05;;;9.60;99.90;;;;;;5042449;28;20498;-74
2022/03/22 08:37:54;;;;;;;39.25;27.63;;;9.80;99.90;;;;;;5041567;28;20046;-73
2022/03/22 08:40:20;;;;;;;39.30;28.13;;;10.10;99.90;;;;;;5047034;28;20037;-73
2022/03/22 08:42:48;;;;;;;40.45;28.75;;;10.20;99.90;;;;;;5048703;28;20146;-72
2022/03/22 08:45:17;;;;;;;37.00;25.92;;;10.40;99.90;;;;;;5035194;28;20381;-73
2022/03/22 08:47:45;;;;;;;38.50;26.50;;;10.50;99.90;;;;;;5032468;28;20053;-73
2022/03/22 08:50:17;;;;;;;36.92;26.13;;;10.50;99.90;;;;;;5032618;28;20080;-73
2022/03/22 08:52:43;;;;;;;44.70;27.50;;;10.50;99.90;;;;;;5031853;28;20111;-72
2022/03/22 08:55:12;;;;;;;39.05;27.65;;;10.60;99.90;;;;;;5039433;28;20045;-73
2022/03/22 08:57:39;;;;;;;38.22;26.70;;;10.70;99.90;;;;;;5040164;28;20128;-73
2022/03/22 09:00:09;;;;;;;41.38;27.67;;;10.80;99.90;;;;;;5033956;28;20087;-73
2022/03/22 09:02:38;;;;;;;38.20;26.58;;;10.90;99.90;;;;;;5032254;28;20057;-73
2022/03/22 09:07:51;;;;;;;36.63;26.48;;;11.10;99.90;;;;;;5032152;28;20053;-71
2022/03/22 09:10:19;;;;;;;36.70;27.20;;;11.20;99.90;;;;;;5032635;28;20045;-74
2022/03/22 09:12:45;;;;;;;38.28;28.35;;;11.20;99.90;;;;;;5031322;28;20038;-75
2022/03/22 09:15:14;;;;;;;37.30;27.67;;;11.20;99.90;;;;;;5043289;28;20112;-75
2022/03/22 09:17:40;;;;;;;40.55;28.25;;;11.30;99.90;;;;;;5049068;28;20123;-75
2022/03/22 09:20:06;;;;;;;37.05;28.40;;;11.30;99.90;;;;;;5034068;28;20132;-74
2022/03/22 09:22:32;;;;;;;39.55;28.25;;;11.30;99.90;;;;;;5040644;28;20454;-75
2022/03/22 09:24:57;;;;;;;41.88;29.92;;;11.50;99.90;;;;;;5038809;28;20075;-75
2022/03/22 09:27:24;;;;;;;36.15;26.67;;;11.60;99.90;;;;;;5036313;28;20519;-76
2022/03/22 09:29:50;;;;;;;36.55;26.88;;;11.70;99.90;;;;;;5029811;28;20061;-74
2022/03/22 09:32:15;;;;;;;32.90;24.67;;;11.80;99.90;;;;;;5033535;28;20474;-75
2022/03/22 09:34:43;;;;;;;38.95;27.90;;;12.00;99.90;;;;;;5037982;28;20064;-75
2022/03/22 09:37:09;;;;;;;39.97;25.83;;;12.10;99.90;;;;;;5037652;28;20048;-75
2022/03/22 09:39:35;;;;;;;32.53;24.10;;;12.10;99.90;;;;;;5042951;28;20049;-76
2022/03/22 09:42:02;;;;;;;36.58;26.00;;;12.20;99.90;;;;;;5033347;28;20479;-76
2022/03/22 09:44:29;;;;;;;43.03;26.35;;;12.30;99.90;;;;;;5039088;28;20142;-75
2022/03/22 09:46:56;;;;;;;35.60;26.65;;;12.40;99.90;;;;;;5032045;28;20113;-75
2022/03/22 09:49:22;;;;;;;38.75;26.85;;;12.50;99.90;;;;;;5032751;28;20045;-75
2022/03/22 09:51:49;;;;;;;35.45;25.45;;;12.60;99.90;;;;;;5041852;28;20044;-75
2022/03/22 09:54:17;;;;;;;34.17;26.42;;;12.70;99.90;;;;;;5051932;28;20513;-75
2022/03/22 09:56:45;;;;;;;35.55;26.05;;;12.80;99.90;;;;;;5051028;28;20098;-75
2022/03/22 09:59:11;;;;;;;40.45;26.40;;;12.90;99.90;;;;;;5051452;28;20052;-75
2022/03/22 10:01:38;;;;;;;33.13;25.08;;;13.00;99.90;;;;;;5035957;28;20403;-75
2022/03/22 10:04:09;;;;;;;38.85;25.48;;;13.00;99.90;;;;;;5032489;28;20129;-76
2022/03/22 10:06:35;;;;;;;38.38;26.40;;;13.10;99.90;;;;;;5030870;28;20045;-75
2022/03/22 10:09:05;;;;;;;35.55;24.80;;;13.20;99.90;;;;;;5048896;28;20044;-75
2022/03/22 10:11:42;;;;;;;34.20;26.05;;;13.30;99.90;;;;;;5052479;28;20045;-74
2022/03/22 10:14:10;;;;;;;35.05;24.77;;;13.40;99.90;;;;;;5051297;28;20098;-73
2022/03/22 10:16:46;;;;;;;35.75;25.48;;;13.40;99.90;;;;;;5039354;28;20124;-73
2022/03/22 10:19:22;;;;;;;38.53;24.35;;;13.60;99.90;;;;;;5032503;28;20041;-72
2022/03/22 10:21:48;;;;;;;38.15;25.33;;;13.70;99.90;;;;;;5041486;28;20052;-70
2022/03/22 10:24:15;;;;;;;35.05;24.73;;;13.80;99.90;;;;;;5041098;28;20462;-72
2022/03/22 10:26:44;;;;;;;38.15;24.27;;;13.90;99.90;;;;;;5031241;28;20050;-72
2022/03/22 10:29:13;;;;;;;35.95;24.48;;;14.00;99.90;;;;;;5029785;28;20057;-70
2022/03/22 10:31:40;;;;;;;30.33;22.58;;;14.00;99.90;;;;;;5032002;28;20492;-73
2022/03/22 10:34:07;;;;;;;35.63;23.50;;;14.20;99.90;;;;;;5042859;28;20045;-73
2022/03/22 10:36:38;;;;;;;31.75;22.83;;;14.30;99.90;;;;;;5045317;28;20546;-73
2022/03/22 10:39:06;;;;;;;33.95;24.13;;;14.40;99.90;;;;;;5031579;28;20435;-73
2022/03/22 10:41:37;;;;;;;34.78;24.67;;;14.50;99.90;;;;;;5031899;28;20227;-73
2022/03/22 10:44:04;;;;;;;34.08;23.80;;;14.50;99.90;;;;;;5031401;28;20045;-73
2022/03/22 10:46:30;;;;;;;32.75;23.08;;;14.60;99.90;;;;;;5030812;28;20485;-72
2022/03/22 10:49:16;;;;;;;33.17;23.38;;;14.70;99.90;;;;;;5030698;28;20049;-73
2022/03/22 10:51:43;;;;;;;35.90;23.30;;;14.80;99.90;;;;;;5030026;28;20041;-72
2022/03/22 10:54:16;;;;;;;32.55;23.33;;;14.90;99.90;;;;;;5031809;28;20484;-72
2022/03/22 10:56:46;;;;;;;30.60;22.65;;;15.00;99.90;;;;;;5030294;28;20054;-72
2022/03/22 10:59:14;;;;;;;33.72;24.17;;;15.10;99.90;;;;;;5032017;28;20053;-72
2022/03/22 11:01:45;;;;;;;36.85;23.42;;;15.10;99.90;;;;;;5032051;28;20112;-70
2022/03/22 11:04:15;;;;;;;35.07;23.80;;;15.20;99.90;;;;;;5035199;28;20049;-71
2022/03/22 11:06:41;;;;;;;35.42;23.05;;;15.20;99.90;;;;;;5034401;28;20049;-72
2022/03/22 11:09:07;;;;;;;39.42;25.23;;;15.30;99.90;;;;;;5035468;28;20060;-71
2022/03/22 11:11:35;;;;;;;35.20;24.35;;;16.90;99.90;;;;;;5034769;28;20045;-72
2022/03/22 11:14:01;;;;;;;37.20;23.25;;;15.40;99.90;;;;;;5048811;28;20048;-72
2022/03/22 11:16:29;;;;;;;34.42;22.88;;;15.40;99.90;;;;;;5054630;28;20121;-72
2022/03/22 11:18:59;;;;;;;32.30;23.33;;;15.50;99.90;;;;;;5054868;28;20071;-72
2022/03/22 11:21:26;;;;;;;33.28;22.30;;;15.60;99.90;;;;;;5055514;28;20033;-72
2022/03/22 11:24:02;;;;;;;30.20;21.50;;;15.70;99.90;;;;;;5037349;28;20138;-71
2022/03/22 11:26:27;;;;;;;38.38;23.83;;;15.80;99.90;;;;;;5033891;28;20046;-71
2022/03/22 11:28:54;;;;;;;37.67;23.30;;;15.90;99.90;;;;;;5034121;28;20514;-71
2022/03/22 11:31:24;;;;;;;33.33;22.27;;;16.00;99.90;;;;;;5034794;28;20503;-71
2022/03/22 11:34:09;;;;;;;32.47;22.13;;;16.10;99.90;;;;;;5052711;28;20079;-71
2022/03/22 11:36:43;;;;;;;30.55;21.02;;;16.10;99.90;;;;;;5050934;28;20134;-72
2022/03/22 11:39:14;;;;;;;33.65;20.38;;;16.30;99.90;;;;;;5065432;28;20052;-73
2022/03/22 11:44:59;;;;;;;28.73;21.50;;;16.50;99.90;;;;;;5041467;28;20121;-72
2022/03/22 11:47:25;;;;;;;33.88;22.67;;;16.60;99.20;;;;;;5032639;28;20049;-71
2022/03/22 11:49:57;;;;;;;34.35;22.50;;;16.60;99.90;;;;;;5034148;28;20057;-71
2022/03/22 11:52:24;;;;;;;33.03;21.98;;;16.70;99.50;;;;;;5034376;28;20045;-72
2022/03/22 11:55:15;;;;;;;30.73;21.67;;;16.70;99.90;;;;;;5041196;28;20067;-71
2022/03/22 11:57:51;;;;;;;33.70;21.85;;;16.80;96.00;;;;;;5050179;28;20140;-71
2022/03/22 12:00:19;;;;;;;31.77;23.23;;;16.80;97.00;;;;;;5053985;28;20566;-72
2022/03/22 12:02:52;;;;;;;31.17;21.52;;;16.80;96.80;;;;;;5053323;28;20037;-71
2022/03/22 12:05:22;;;;;;;32.50;20.80;;;16.90;96.90;;;;;;5051605;28;20096;-71
2022/03/22 12:07:50;;;;;;;30.50;21.00;;;17.00;96.50;;;;;;5032718;28;20435;-71
2022/03/22 12:10:17;;;;;;;38.97;22.63;;;17.00;96.60;;;;;;5032996;28;20064;-71
2022/03/22 12:12:51;;;;;;;34.75;22.35;;;17.10;96.60;;;;;;5034468;28;20105;-73
2022/03/22 12:15:21;;;;;;;35.65;23.33;;;17.10;94.70;;;;;;5048766;28;20061;-72
2022/03/22 12:17:48;;;;;;;32.95;21.48;;;17.20;95.50;;;;;;5043707;28;20041;-72
2022/03/22 12:20:16;;;;;;;29.65;20.60;;;17.30;95.30;;;;;;5040099;28;20045;-72
2022/03/22 12:22:50;;;;;;;32.00;22.08;;;16.70;94.60;;;;;;5043481;28;20044;-71
2022/03/22 12:25:18;;;;;;;32.10;23.05;;;17.40;93.80;;;;;;5041346;28;20044;-71
2022/03/22 12:27:54;;;;;;;30.65;20.77;;;17.50;94.10;;;;;;5037306;28;20041;-73
2022/03/22 12:30:21;;;;;;;35.40;24.08;;;17.50;94.20;;;;;;5040445;28;20065;-70
2022/03/22 12:32:52;;;;;;;28.42;21.58;;;17.60;94.20;;;;;;5044192;28;20056;-71
2022/03/22 12:35:18;;;;;;;34.33;22.60;;;17.80;93.60;;;;;;5047108;28;20061;-73
2022/03/22 12:37:44;;;;;;;34.42;23.77;;;17.80;93.60;;;;;;5038795;28;20053;-72
2022/03/22 12:40:12;;;;;;;33.78;21.35;;;17.80;93.20;;;;;;5032776;28;20060;-72
2022/03/22 12:42:39;;;;;;;33.72;22.13;;;17.80;93.10;;;;;;5033323;28;20045;-72
2022/03/22 12:45:05;;;;;;;34.60;21.60;;;18.10;93.30;;;;;;5032755;28;20045;-72
2022/03/22 12:47:31;;;;;;;39.92;22.05;;;17.90;93.60;;;;;;5033843;28;20045;-72
2022/03/22 12:49:56;;;;;;;32.70;21.98;;;18.00;93.50;;;;;;5031984;28;20381;-72
2022/03/22 12:52:22;;;;;;;33.30;22.65;;;18.00;92.60;;;;;;5032809;28;20053;-72
2022/03/22 12:54:48;;;;;;;34.83;21.65;;;18.00;91.50;;;;;;5033792;28;20052;-73
2022/03/22 12:57:17;;;;;;;29.58;21.27;;;18.00;91.60;;;;;;5032317;28;20041;-74
2022/03/22 12:59:43;;;;;;;35.67;20.77;;;18.10;90.50;;;;;;5032261;28;20053;-70
2022/03/22 13:02:10;;;;;;;32.17;22.77;;;18.10;91.00;;;;;;5033604;28;20406;-70